McHenry, IL (60051)

12:37 AM CST en Noviembre 24, 2014 (GMT -0600)
Glacier Ridge - West Side | Change Station
CLOSE
Current Station
Estación meteorológica personal
Location: McHenry, IL
Altura: 925 ft
Estaciones meteorológicas cercanas
Aviso en curso: Winter Weather Advisory

Alt 925 ft 42.35 °N, 88.33 °W | Updated 1 minute ago

Muy nublado
Muy nublado
45.7 ° F
Sensación térmica 46 ° F
N
0.0
Viento Variable Viento desde ENE
Gusts 0.0 mph

Hoy
Alta -- | Baja -- ° F
--% Posibilidad de precipitaciones
Ayer
Alta -- | Baja -- ° F
Precip. -- pul
6:54 AM 4:24 PM
Creciente, 4% visible
Presión 29.06 pul
Visibilidad 2.5 Millas
Nubes Nubes dispersas 1200 ft
Nubes dispersas 1700 ft
Nublado 3900 ft
Vientos helados 46 ° F
Punto de rocío 42 ° F
Humedad 88%
Precipitaciones 0.00 pul
Espesor de la nieve No disponible.
UV 0 de una escala de 12
Polen .10 de una escala de 12
Calidad del aire No disponible.
Flu Activity No disponible.
SPECI KUGN 240628Z AUTO VRB03KT 2 1/2SM -RA BR SCT012 SCT017 OVC039 08/07 A2906 RMK AO2 P0002 T00780072

More Conditions Fewer Conditions

Presión 29.06 pul
Visibilidad 2.5 Millas
Nubes Nubes dispersas 1200 ft
Nubes dispersas 1700 ft
Nublado 3900 ft
Vientos helados 46 ° F
Punto de rocío 42 ° F
Humedad 88%
Precipitaciones 0.00 pul
Espesor de la nieve No disponible.
UV 0 de una escala de 12
Polen .10 de una escala de 12
Calidad del aire No disponible.
Flu Activity No disponible.
SPECI KUGN 240628Z AUTO VRB03KT 2 1/2SM -RA BR SCT012 SCT017 OVC039 08/07 A2906 RMK AO2 P0002 T00780072

More Conditions Fewer Conditions

10-Day Weather Forecast

Almanac

Astronomía

Nov. 24, 2014 Salida Puesta
Hora real
Crepúsculo civil
Crepúsculo náutico
Crepúsculo astronómico
Luna
Horas de luz
Horas de luz
Tomorrow will be .
, % of the Moon is Illuminated

Extremos de hoy

Máximos del estado Bajos del estado

Community

WunderPhotos

Upload Photos

1,773,286 ¡fotos cargadas!

WunderBlogs® & News

Nearby

Calidad del aire

  Calidad del aire Índice AQ Contaminante
Not available.

Grosos de nieve

Estación Profundido Altura

Actividad de terremotos

Ciudad Distance Mag. Tiempo y dato
Magnitud mínima muestra es 2,5.

Temperaturas de aguas costeras

Lugar Temperatura

Estaciones meteorológicas cercanas